createdAt,value
2017-08-26T00:01:27.692Z,19.50
2017-08-26T00:03:55.559Z,18.30
2017-08-26T00:06:23.289Z,18.37
2017-08-26T00:08:51.056Z,17.83
2017-08-26T00:11:18.771Z,19.08
2017-08-26T00:13:46.618Z,18.12
2017-08-26T00:16:14.486Z,17.30
2017-08-26T00:18:42.353Z,19.33
2017-08-26T00:21:10.219Z,18.42
2017-08-26T00:23:37.938Z,19.90
2017-08-26T00:26:05.750Z,18.58
2017-08-26T00:28:33.465Z,18.87
2017-08-26T00:31:01.231Z,20.15
2017-08-26T00:33:28.966Z,20.27
2017-08-26T00:35:56.809Z,19.73
2017-08-26T00:38:24.534Z,20.30
2017-08-26T00:40:52.287Z,22.75
2017-08-26T00:43:20.206Z,25.50
2017-08-26T00:45:48.080Z,22.70
2017-08-26T00:48:15.834Z,22.45
2017-08-26T00:50:43.707Z,22.05
2017-08-26T00:53:11.463Z,19.87
2017-08-26T00:55:39.235Z,20.00
2017-08-26T00:58:07.105Z,22.73
2017-08-26T01:00:34.841Z,19.90
2017-08-26T01:03:02.746Z,20.52
2017-08-26T01:05:30.603Z,19.55
2017-08-26T01:07:58.576Z,22.48
2017-08-26T01:10:26.438Z,20.12
2017-08-26T01:12:54.199Z,18.52
2017-08-26T01:15:21.946Z,17.77
2017-08-26T01:17:49.836Z,17.87
2017-08-26T01:20:17.704Z,18.42
2017-08-26T01:22:45.499Z,19.35
2017-08-26T01:25:13.231Z,19.17
2017-08-26T01:27:41.103Z,17.00
2017-08-26T01:30:08.835Z,18.80
2017-08-26T01:32:36.621Z,17.98
2017-08-26T01:35:04.495Z,16.20
2017-08-26T01:37:32.366Z,16.15
2017-08-26T01:40:00.230Z,17.30
2017-08-26T01:42:28.098Z,16.50
2017-08-26T01:44:55.965Z,18.08
2017-08-26T01:47:23.832Z,17.85
2017-08-26T01:49:51.570Z,15.68
2017-08-26T01:52:19.303Z,17.50
2017-08-26T01:54:47.126Z,17.73
2017-08-26T01:57:14.869Z,17.25
2017-08-26T01:59:42.656Z,16.65
2017-08-26T02:02:10.528Z,17.05
2017-08-26T02:04:38.390Z,16.27
2017-08-26T02:07:06.257Z,16.90
2017-08-26T02:09:33.998Z,19.90
2017-08-26T02:12:01.893Z,20.88
2017-08-26T02:14:29.757Z,18.52
2017-08-26T02:16:57.625Z,17.90
2017-08-26T02:19:25.350Z,17.50
2017-08-26T02:21:53.079Z,18.77
2017-08-26T02:24:20.812Z,23.58
2017-08-26T02:26:48.540Z,24.60
2017-08-26T02:29:16.268Z,20.42
2017-08-26T02:31:44.008Z,20.75
2017-08-26T02:34:11.734Z,20.35
2017-08-26T02:36:39.459Z,20.48
2017-08-26T02:39:07.214Z,17.12
2017-08-26T02:41:34.942Z,19.02
2017-08-26T02:44:02.658Z,18.75
2017-08-26T02:46:30.505Z,17.73
2017-08-26T02:48:58.230Z,18.92
2017-08-26T02:51:25.942Z,20.00
2017-08-26T02:53:53.675Z,18.60
2017-08-26T02:56:21.397Z,17.48
2017-08-26T02:58:49.115Z,17.95
2017-08-26T03:01:16.846Z,17.35
2017-08-26T03:03:44.572Z,16.60
2017-08-26T03:06:12.294Z,17.37
2017-08-26T03:08:40.011Z,16.27
2017-08-26T03:11:07.836Z,17.90
2017-08-26T03:13:35.558Z,16.17
2017-08-26T03:16:03.286Z,15.30
2017-08-26T03:18:31.018Z,15.30
2017-08-26T03:20:58.896Z,15.77
2017-08-26T03:23:26.766Z,15.00
2017-08-26T03:25:54.482Z,15.40
2017-08-26T03:28:22.213Z,14.93
2017-08-26T03:30:49.952Z,14.45
2017-08-26T03:33:17.683Z,14.13
2017-08-26T03:35:45.406Z,15.23
2017-08-26T03:38:13.122Z,14.35
2017-08-26T03:40:40.838Z,13.43
2017-08-26T03:43:08.553Z,14.00
2017-08-26T03:45:36.333Z,12.77
2017-08-26T03:48:04.062Z,12.95
2017-08-26T03:50:31.779Z,12.98
2017-08-26T03:52:59.538Z,14.00
2017-08-26T03:55:27.258Z,12.57
2017-08-26T03:57:55.061Z,13.35
2017-08-26T04:00:22.806Z,11.57
2017-08-26T04:02:50.592Z,13.20
2017-08-26T04:05:18.460Z,11.90
2017-08-26T04:07:46.325Z,11.70
2017-08-26T04:10:14.192Z,11.98
2017-08-26T04:12:42.060Z,13.65
2017-08-26T04:15:09.931Z,13.80
2017-08-26T04:17:37.670Z,12.27
2017-08-26T04:20:05.393Z,12.30
2017-08-26T04:22:33.114Z,13.25
2017-08-26T04:25:00.826Z,12.77
2017-08-26T04:27:28.653Z,14.23
2017-08-26T04:29:56.371Z,14.27
2017-08-26T04:32:24.461Z,13.40
2017-08-26T04:34:52.195Z,14.20
2017-08-26T04:37:19.971Z,14.40
2017-08-26T04:39:51.292Z,15.70
2017-08-26T04:42:23.019Z,14.70
2017-08-26T04:44:54.334Z,13.70
2017-08-26T04:47:25.572Z,13.68
2017-08-26T04:49:56.598Z,12.93
2017-08-26T04:52:28.982Z,13.25
2017-08-26T04:55:01.485Z,13.32
2017-08-26T04:57:33.980Z,19.05
2017-08-26T05:00:05.472Z,22.00
2017-08-26T05:02:36.662Z,21.58
2017-08-26T05:05:07.548Z,18.62
2017-08-26T05:07:38.322Z,18.23
2017-08-26T05:10:08.829Z,17.70
2017-08-26T05:12:39.532Z,15.60
2017-08-26T05:15:11.361Z,16.30
2017-08-26T05:17:42.365Z,14.80
2017-08-26T05:20:14.199Z,14.55
2017-08-26T05:22:45.550Z,17.85
2017-08-26T05:25:17.154Z,18.55
2017-08-26T05:27:48.364Z,18.35
2017-08-26T05:30:21.101Z,17.37
2017-08-26T05:32:52.691Z,15.27
2017-08-26T05:35:26.793Z,15.00
2017-08-26T05:37:57.730Z,15.45
2017-08-26T05:40:25.583Z,13.80
2017-08-26T05:42:53.334Z,13.18
2017-08-26T05:45:21.099Z,12.60
2017-08-26T05:47:48.843Z,13.88
2017-08-26T05:50:16.587Z,13.10
2017-08-26T05:52:44.331Z,12.30
2017-08-26T05:55:12.062Z,13.20
2017-08-26T05:57:39.789Z,14.50
2017-08-26T06:00:07.555Z,12.63
2017-08-26T06:02:35.279Z,12.50
2017-08-26T06:05:03.007Z,12.10
2017-08-26T06:07:30.742Z,11.45
2017-08-26T06:09:58.474Z,12.10
2017-08-26T06:12:26.206Z,11.68
2017-08-26T06:14:53.932Z,12.20
2017-08-26T06:17:21.658Z,12.32
2017-08-26T06:19:49.396Z,12.32
2017-08-26T06:22:17.110Z,11.88
2017-08-26T06:24:44.836Z,11.82
2017-08-26T06:27:12.558Z,11.38
2017-08-26T06:29:40.293Z,10.60
2017-08-26T06:32:08.012Z,9.65
2017-08-26T06:34:35.723Z,9.65
2017-08-26T06:37:03.446Z,10.10
2017-08-26T06:39:31.178Z,9.30
2017-08-26T06:41:58.895Z,9.10
2017-08-26T06:44:26.609Z,9.43
2017-08-26T06:46:54.334Z,8.60
2017-08-26T06:49:22.066Z,8.35
2017-08-26T06:51:49.793Z,9.48
2017-08-26T06:54:17.515Z,9.52
2017-08-26T06:56:45.234Z,8.57
2017-08-26T06:59:12.947Z,9.00
2017-08-26T07:01:40.663Z,9.07
2017-08-26T07:04:08.375Z,9.00
2017-08-26T07:06:36.082Z,8.50
2017-08-26T07:09:03.908Z,10.30
2017-08-26T07:11:31.624Z,9.05
2017-08-26T07:13:59.350Z,8.82
2017-08-26T07:16:27.059Z,9.18
2017-08-26T07:18:54.775Z,8.52
2017-08-26T07:21:22.498Z,9.23
2017-08-26T07:23:50.229Z,9.45
2017-08-26T07:26:17.950Z,10.13
2017-08-26T07:28:45.666Z,10.15
2017-08-26T07:31:13.390Z,9.85
2017-08-26T07:33:41.125Z,10.60
2017-08-26T07:36:08.862Z,9.85
2017-08-26T07:38:36.583Z,9.82
2017-08-26T07:41:04.307Z,9.65
2017-08-26T07:43:32.026Z,11.25
2017-08-26T07:45:59.743Z,10.73
2017-08-26T07:48:27.459Z,10.88
2017-08-26T07:50:55.262Z,12.73
2017-08-26T07:53:22.982Z,12.37
2017-08-26T07:55:50.701Z,18.00
2017-08-26T07:58:18.418Z,22.05
2017-08-26T08:00:46.197Z,23.10
2017-08-26T08:03:13.942Z,28.75
2017-08-26T08:05:41.663Z,29.30
2017-08-26T08:08:09.386Z,25.55
2017-08-26T08:10:37.102Z,33.50
2017-08-26T08:13:04.830Z,37.35
2017-08-26T08:15:32.550Z,32.13
2017-08-26T08:18:00.271Z,39.60
2017-08-26T08:20:27.993Z,38.28
2017-08-26T08:22:55.719Z,39.42
2017-08-26T08:25:23.438Z,37.17
2017-08-26T08:27:51.159Z,36.35
2017-08-26T08:30:18.883Z,33.33
2017-08-26T08:32:46.603Z,33.63
2017-08-26T08:35:14.330Z,33.65
2017-08-26T08:37:42.050Z,35.85
2017-08-26T08:40:09.823Z,30.75
2017-08-26T08:42:37.558Z,31.58
2017-08-26T08:45:05.283Z,30.37
2017-08-26T08:47:33.059Z,29.77
2017-08-26T08:50:00.784Z,32.15
2017-08-26T08:52:28.498Z,32.13
2017-08-26T08:54:56.343Z,30.23
2017-08-26T08:57:24.116Z,29.00
2017-08-26T08:59:51.842Z,26.70
2017-08-26T09:02:19.740Z,27.25
2017-08-26T09:04:47.607Z,26.12
2017-08-26T09:07:15.474Z,25.37
2017-08-26T09:09:43.341Z,22.58
2017-08-26T09:12:11.208Z,23.77
2017-08-26T09:14:39.076Z,23.70
2017-08-26T09:17:07.046Z,22.10
2017-08-26T09:19:34.779Z,25.73
2017-08-26T09:22:02.501Z,23.83
2017-08-26T09:24:30.223Z,24.05
2017-08-26T09:26:57.943Z,23.85
2017-08-26T09:29:26.382Z,22.35
2017-08-26T09:31:54.103Z,21.35
2017-08-26T09:34:21.834Z,20.88
2017-08-26T09:36:50.087Z,22.87
2017-08-26T09:39:17.953Z,21.60
2017-08-26T09:41:45.820Z,23.58
2017-08-26T09:44:13.687Z,21.37
2017-08-26T09:46:41.660Z,22.37
2017-08-26T09:49:09.940Z,19.73
2017-08-26T09:51:37.904Z,23.58
2017-08-26T09:54:05.771Z,20.88
2017-08-26T09:56:33.575Z,23.12
2017-08-26T09:59:01.403Z,23.33
2017-08-26T10:01:29.270Z,23.38
2017-08-26T10:03:57.138Z,21.50
2017-08-26T10:06:25.008Z,21.30
2017-08-26T10:08:52.873Z,19.55
2017-08-26T10:11:20.739Z,23.35
2017-08-26T10:13:48.607Z,25.05
2017-08-26T10:16:16.474Z,22.58
2017-08-26T10:18:44.230Z,22.87
2017-08-26T10:21:11.958Z,21.42
2017-08-26T10:23:39.702Z,21.30
2017-08-26T10:26:07.430Z,21.95
2017-08-26T10:28:35.182Z,22.87
2017-08-26T10:31:03.015Z,24.17
2017-08-26T10:33:30.776Z,19.92
2017-08-26T10:35:58.592Z,24.12
2017-08-26T10:38:26.460Z,20.83
2017-08-26T10:40:54.327Z,19.92
2017-08-26T10:43:22.195Z,20.30
2017-08-26T10:45:50.062Z,22.20
2017-08-26T10:48:17.929Z,22.05
2017-08-26T10:50:45.796Z,23.33
2017-08-26T10:53:13.662Z,18.17
2017-08-26T10:55:41.530Z,20.12
2017-08-26T10:58:09.500Z,21.27
2017-08-26T11:00:37.367Z,20.83
2017-08-26T11:03:05.234Z,19.33
2017-08-26T11:05:33.102Z,20.62
2017-08-26T11:08:00.969Z,18.83
2017-08-26T11:10:28.840Z,21.37
2017-08-26T11:12:56.706Z,18.08
2017-08-26T11:15:24.572Z,17.85
2017-08-26T11:17:52.441Z,19.10
2017-08-26T11:20:20.310Z,19.20
2017-08-26T11:22:48.178Z,16.08
2017-08-26T11:25:16.043Z,19.65
2017-08-26T11:27:43.908Z,17.60
2017-08-26T11:30:11.785Z,18.10
2017-08-26T11:32:39.642Z,19.42
2017-08-26T11:35:07.509Z,18.02
2017-08-26T11:37:36.219Z,17.20
2017-08-26T11:40:04.167Z,15.65
2017-08-26T11:42:31.929Z,17.00
2017-08-26T11:45:00.004Z,15.00
2017-08-26T11:47:27.869Z,13.50
2017-08-26T11:49:55.736Z,14.27
2017-08-26T11:52:23.609Z,14.32
2017-08-26T11:54:51.475Z,13.35
2017-08-26T11:57:19.343Z,16.70
2017-08-26T11:59:47.205Z,12.95
2017-08-26T12:02:15.072Z,15.00
2017-08-26T12:04:42.942Z,14.60
2017-08-26T12:07:10.808Z,15.05
2017-08-26T12:09:38.674Z,13.65
2017-08-26T12:12:06.541Z,16.15
2017-08-26T12:14:34.409Z,13.40
2017-08-26T12:17:02.206Z,12.80
2017-08-26T12:19:30.145Z,15.97
2017-08-26T12:21:58.012Z,13.35
2017-08-26T12:24:25.877Z,13.70
2017-08-26T12:26:53.745Z,12.18
2017-08-26T12:29:21.612Z,12.15
2017-08-26T12:31:49.582Z,11.45
2017-08-26T12:34:17.453Z,11.60
2017-08-26T12:36:45.317Z,10.05
2017-08-26T12:39:13.183Z,11.43
2017-08-26T12:41:41.075Z,9.23
2017-08-26T12:44:08.918Z,12.23
2017-08-26T12:46:36.785Z,9.70
2017-08-26T12:49:04.653Z,9.23
2017-08-26T12:51:32.519Z,9.40
2017-08-26T12:54:00.387Z,9.50
2017-08-26T12:56:28.253Z,9.35
2017-08-26T12:58:56.121Z,9.45
2017-08-26T13:01:23.988Z,9.20
2017-08-26T13:03:51.855Z,10.25
2017-08-26T13:06:19.723Z,9.00
2017-08-26T13:08:47.594Z,8.65
2017-08-26T13:11:15.457Z,9.90
2017-08-26T13:13:43.324Z,9.32
2017-08-26T13:16:11.191Z,9.52
2017-08-26T13:18:39.059Z,8.63
2017-08-26T13:21:06.926Z,8.40
2017-08-26T13:23:34.794Z,7.30
2017-08-26T13:26:02.668Z,8.40
2017-08-26T13:28:30.528Z,8.40
2017-08-26T13:30:58.396Z,8.63
2017-08-26T13:33:26.262Z,8.48
2017-08-26T13:35:54.130Z,9.57
2017-08-26T13:38:21.996Z,8.25
2017-08-26T13:40:49.865Z,8.85
2017-08-26T13:43:17.731Z,7.62
2017-08-26T13:45:45.598Z,7.62
2017-08-26T13:48:13.465Z,8.02
2017-08-26T13:50:41.231Z,8.55
2017-08-26T13:53:09.097Z,8.27
2017-08-26T13:55:36.968Z,8.02
2017-08-26T13:58:04.832Z,8.00
2017-08-26T14:00:32.699Z,8.18
2017-08-26T14:03:00.566Z,8.20
2017-08-26T14:05:28.433Z,7.72
2017-08-26T14:07:56.299Z,8.05
2017-08-26T14:10:24.168Z,7.80
2017-08-26T14:12:52.036Z,8.18
2017-08-26T14:15:19.902Z,7.55
2017-08-26T14:17:47.769Z,7.75
2017-08-26T14:20:15.636Z,6.90
2017-08-26T14:22:43.503Z,7.57
2017-08-26T14:25:14.357Z,7.22
2017-08-26T14:27:45.672Z,6.85
2017-08-26T14:30:18.263Z,7.80
2017-08-26T14:32:49.449Z,7.40
2017-08-26T14:35:21.963Z,8.35
2017-08-26T14:37:53.399Z,7.82
2017-08-26T14:40:24.598Z,7.60
2017-08-26T14:42:53.835Z,7.62
2017-08-26T14:45:21.679Z,8.40
2017-08-26T14:47:51.102Z,8.55
2017-08-26T14:50:20.171Z,8.15
2017-08-26T14:52:48.021Z,7.80
2017-08-26T14:55:16.406Z,7.40
2017-08-26T14:57:47.543Z,8.05
2017-08-26T15:00:18.071Z,9.25
2017-08-26T15:02:51.281Z,8.80
2017-08-26T15:05:23.619Z,8.98
2017-08-26T15:07:55.905Z,8.10
2017-08-26T15:10:28.068Z,8.60
2017-08-26T15:13:01.264Z,9.60
2017-08-26T15:15:34.393Z,8.15
2017-08-26T15:18:05.288Z,8.13
2017-08-26T15:20:35.479Z,8.30
2017-08-26T15:23:06.651Z,8.02
2017-08-26T15:25:42.651Z,8.10
2017-08-26T15:28:10.483Z,8.27
2017-08-26T15:30:38.359Z,7.75
2017-08-26T15:33:06.223Z,8.30
2017-08-26T15:35:37.245Z,7.85
2017-08-26T15:38:08.659Z,8.43
2017-08-26T15:40:40.267Z,7.65
2017-08-26T15:43:11.502Z,8.65
2017-08-26T15:45:43.658Z,7.90
2017-08-26T15:48:15.403Z,7.85
2017-08-26T15:50:48.089Z,8.55
2017-08-26T15:53:21.128Z,8.90
2017-08-26T15:55:55.688Z,7.40
2017-08-26T15:58:28.600Z,7.80
2017-08-26T16:01:01.995Z,8.30
2017-08-26T16:03:32.882Z,7.93
2017-08-26T16:06:04.119Z,8.02
2017-08-26T16:08:34.435Z,7.82
2017-08-26T16:11:04.189Z,7.70
2017-08-26T16:13:34.431Z,9.07
2017-08-26T16:16:05.842Z,8.23
2017-08-26T16:18:37.891Z,7.90
2017-08-26T16:21:10.145Z,8.93
2017-08-26T16:23:42.803Z,7.75
2017-08-26T16:26:14.927Z,8.55
2017-08-26T16:28:46.693Z,8.38
2017-08-26T16:31:18.126Z,8.18
2017-08-26T16:33:45.975Z,8.82
2017-08-26T16:36:17.326Z,8.98
2017-08-26T16:38:51.751Z,8.60
2017-08-26T16:41:22.936Z,10.05
2017-08-26T16:43:53.810Z,8.93
2017-08-26T16:46:25.495Z,8.98
2017-08-26T16:48:58.393Z,10.20
2017-08-26T16:51:29.939Z,9.15
2017-08-26T16:54:01.237Z,9.40
2017-08-26T16:56:32.943Z,9.45
2017-08-26T16:59:04.650Z,10.57
2017-08-26T17:01:36.757Z,9.98
2017-08-26T17:04:08.307Z,9.98
2017-08-26T17:06:39.163Z,11.10
2017-08-26T17:09:10.284Z,12.18
2017-08-26T17:11:41.180Z,10.73
2017-08-26T17:14:10.973Z,11.50
2017-08-26T17:16:40.369Z,14.85
2017-08-26T17:19:14.154Z,15.50
2017-08-26T17:21:45.865Z,14.63
2017-08-26T17:24:17.330Z,13.05
2017-08-26T17:26:48.833Z,13.30
2017-08-26T17:29:21.475Z,12.27
2017-08-26T17:31:53.809Z,12.23
2017-08-26T17:34:26.071Z,13.43
2017-08-26T17:36:58.279Z,14.57
2017-08-26T17:39:30.197Z,12.18
2017-08-26T17:42:02.301Z,10.32
2017-08-26T17:44:37.939Z,11.07
2017-08-26T17:47:09.498Z,11.30
2017-08-26T17:49:40.737Z,11.50
2017-08-26T17:52:11.582Z,10.82
2017-08-26T17:54:42.881Z,11.55
2017-08-26T17:57:15.341Z,11.55
2017-08-26T17:59:47.901Z,11.32
2017-08-26T18:02:20.455Z,12.05
2017-08-26T18:04:52.789Z,11.85
2017-08-26T18:07:24.785Z,12.45
2017-08-26T18:09:56.832Z,12.85
2017-08-26T18:12:28.455Z,11.57
2017-08-26T18:14:59.794Z,11.70
2017-08-26T18:17:29.939Z,12.00
2017-08-26T18:20:00.170Z,13.38
2017-08-26T18:22:30.959Z,13.73
2017-08-26T18:25:01.584Z,12.30
2017-08-26T18:27:33.369Z,14.00
2017-08-26T18:30:05.444Z,12.30
2017-08-26T18:32:37.442Z,14.10
2017-08-26T18:35:05.179Z,14.05
2017-08-26T18:37:32.903Z,12.70
2017-08-26T18:40:00.623Z,13.65
2017-08-26T18:42:28.350Z,14.18
2017-08-26T18:44:56.071Z,13.57
2017-08-26T18:47:23.790Z,13.20
2017-08-26T18:49:51.511Z,14.13
2017-08-26T18:52:19.231Z,13.50
2017-08-26T18:54:46.954Z,13.62
2017-08-26T18:57:14.682Z,14.05
2017-08-26T18:59:42.406Z,14.25
2017-08-26T19:02:10.122Z,15.32
2017-08-26T19:04:38.818Z,15.93
2017-08-26T19:07:06.547Z,17.15
2017-08-26T19:09:34.290Z,17.52
2017-08-26T19:12:02.016Z,18.62
2017-08-26T19:14:29.838Z,24.05
2017-08-26T19:16:57.557Z,29.70
2017-08-26T19:19:26.454Z,28.02
2017-08-26T19:21:54.209Z,21.85
2017-08-26T19:24:21.947Z,17.23
2017-08-26T19:26:49.674Z,16.85
2017-08-26T19:29:17.775Z,15.60
2017-08-26T19:31:45.502Z,13.55
2017-08-26T19:34:13.258Z,15.48
2017-08-26T19:36:40.986Z,15.60
2017-08-26T19:39:08.746Z,16.17
2017-08-26T19:41:36.466Z,15.65
2017-08-26T19:44:04.222Z,15.55
2017-08-26T19:46:31.953Z,15.48
2017-08-26T19:48:59.683Z,18.25
2017-08-26T19:51:27.542Z,17.45
2017-08-26T19:53:55.267Z,16.10
2017-08-26T19:56:22.994Z,16.30
2017-08-26T19:58:50.758Z,17.37
2017-08-26T20:01:18.487Z,17.67
2017-08-26T20:03:46.226Z,20.30
2017-08-26T20:06:13.953Z,18.92
2017-08-26T20:08:41.671Z,19.15
2017-08-26T20:11:09.407Z,18.12
2017-08-26T20:13:37.132Z,16.85
2017-08-26T20:16:04.859Z,18.83
2017-08-26T20:18:32.583Z,17.50
2017-08-26T20:21:00.335Z,19.00
2017-08-26T20:23:28.066Z,20.00
2017-08-26T20:25:55.790Z,23.67
2017-08-26T20:28:23.508Z,21.65
2017-08-26T20:30:51.223Z,21.15
2017-08-26T20:33:18.943Z,21.60
2017-08-26T20:35:46.944Z,19.15
2017-08-26T20:38:14.706Z,19.83
2017-08-26T20:40:42.422Z,18.62
2017-08-26T20:43:10.161Z,19.80
2017-08-26T20:45:37.903Z,22.83
2017-08-26T20:48:05.624Z,20.62
2017-08-26T20:50:33.350Z,19.85
2017-08-26T20:53:01.114Z,20.55
2017-08-26T20:55:28.904Z,19.50
2017-08-26T20:57:56.679Z,19.10
2017-08-26T21:00:24.449Z,19.45
2017-08-26T21:02:52.211Z,20.00
2017-08-26T21:05:20.003Z,24.15
2017-08-26T21:07:47.727Z,22.58
2017-08-26T21:10:15.446Z,22.27
2017-08-26T21:12:43.241Z,20.27
2017-08-26T21:15:10.966Z,23.48
2017-08-26T21:17:38.706Z,20.55
2017-08-26T21:20:06.430Z,21.10
2017-08-26T21:22:34.150Z,18.87
2017-08-26T21:25:01.878Z,26.60
2017-08-26T21:27:29.607Z,21.70
2017-08-26T21:29:57.359Z,19.85
2017-08-26T21:32:25.091Z,18.55
2017-08-26T21:34:52.827Z,18.40
2017-08-26T21:37:20.557Z,21.65
2017-08-26T21:39:48.287Z,24.08
2017-08-26T21:42:16.035Z,21.08
2017-08-26T21:44:43.762Z,22.23
2017-08-26T21:47:11.492Z,21.75
2017-08-26T21:49:39.227Z,20.23
2017-08-26T21:52:06.970Z,20.52
2017-08-26T21:54:34.693Z,19.77
2017-08-26T21:57:02.476Z,23.65
2017-08-26T21:59:30.203Z,28.60
2017-08-26T22:01:57.919Z,31.15
2017-08-26T22:04:25.670Z,30.05
2017-08-26T22:06:53.391Z,30.70
2017-08-26T22:09:21.145Z,27.95
2017-08-26T22:11:48.898Z,25.23
2017-08-26T22:14:16.634Z,23.15
2017-08-26T22:16:44.362Z,21.75
2017-08-26T22:19:12.110Z,20.85
2017-08-26T22:21:39.866Z,21.30
2017-08-26T22:24:15.486Z,19.70
2017-08-26T22:26:43.206Z,19.73
2017-08-26T22:29:10.935Z,18.60
2017-08-26T22:31:38.659Z,18.85
2017-08-26T22:34:06.395Z,19.52
2017-08-26T22:36:34.119Z,19.23
2017-08-26T22:39:01.850Z,15.95
2017-08-26T22:41:29.574Z,12.70
2017-08-26T22:43:57.298Z,9.73
2017-08-26T22:46:25.058Z,10.80
2017-08-26T22:48:52.795Z,17.42
2017-08-26T22:51:20.522Z,14.87
2017-08-26T22:53:48.263Z,18.40
2017-08-26T22:56:16.011Z,17.90
2017-08-26T22:58:43.740Z,18.15
2017-08-26T23:01:11.654Z,16.50
2017-08-26T23:03:39.370Z,19.05
2017-08-26T23:06:07.095Z,19.23
2017-08-26T23:08:34.847Z,19.08
2017-08-26T23:11:03.330Z,18.85
2017-08-26T23:13:31.070Z,17.83
2017-08-26T23:15:58.801Z,19.10
2017-08-26T23:18:26.527Z,16.00
2017-08-26T23:20:54.248Z,17.55
2017-08-26T23:23:22.003Z,16.62
2017-08-26T23:25:49.727Z,16.02
2017-08-26T23:28:18.211Z,14.35
2017-08-26T23:30:45.950Z,11.85
2017-08-26T23:33:13.671Z,11.45
2017-08-26T23:35:41.396Z,11.60
2017-08-26T23:38:09.883Z,10.23
2017-08-26T23:40:37.622Z,11.52
2017-08-26T23:43:05.339Z,10.60
2017-08-26T23:45:33.104Z,12.30
2017-08-26T23:48:00.857Z,13.40
2017-08-26T23:50:28.615Z,13.18
2017-08-26T23:52:56.344Z,13.60
2017-08-26T23:55:24.072Z,14.85
2017-08-26T23:57:51.802Z,14.93
